createdAt,value
2018-09-14T00:00:03.890Z,13.60
2018-09-14T00:02:34.596Z,13.60
2018-09-14T00:05:05.501Z,13.60
2018-09-14T00:07:36.456Z,13.60
2018-09-14T00:10:07.221Z,13.60
2018-09-14T00:12:37.957Z,13.60
2018-09-14T00:15:08.712Z,13.50
2018-09-14T00:17:39.397Z,13.50
2018-09-14T00:20:10.137Z,13.50
2018-09-14T00:22:40.855Z,13.40
2018-09-14T00:25:11.513Z,13.40
2018-09-14T00:27:42.228Z,13.40
2018-09-14T00:30:12.928Z,13.40
2018-09-14T00:32:43.745Z,13.40
2018-09-14T00:35:14.473Z,13.30
2018-09-14T00:37:45.176Z,13.30
2018-09-14T00:40:15.860Z,13.20
2018-09-14T00:42:46.588Z,13.20
2018-09-14T00:45:17.433Z,13.20
2018-09-14T00:47:48.136Z,13.20
2018-09-14T00:50:18.849Z,13.20
2018-09-14T00:52:49.580Z,13.20
2018-09-14T00:55:20.309Z,13.20
2018-09-14T00:57:51.166Z,13.10
2018-09-14T01:00:21.877Z,13.10
2018-09-14T01:02:52.616Z,13.10
2018-09-14T01:05:23.295Z,13.00
2018-09-14T01:07:54.026Z,13.00
2018-09-14T01:10:24.724Z,13.00
2018-09-14T01:12:55.421Z,12.90
2018-09-14T01:15:26.093Z,13.00
2018-09-14T01:17:56.826Z,12.90
2018-09-14T01:20:27.521Z,12.90
2018-09-14T01:22:58.207Z,12.90
2018-09-14T01:25:28.884Z,12.80
2018-09-14T01:27:59.581Z,12.80
2018-09-14T01:30:30.288Z,12.80
2018-09-14T01:33:01.013Z,12.80
2018-09-14T01:35:37.091Z,12.70
2018-09-14T01:38:07.806Z,12.70
2018-09-14T01:40:38.500Z,12.70
2018-09-14T01:43:09.181Z,12.70
2018-09-14T01:45:39.905Z,12.70
2018-09-14T01:48:10.610Z,12.70
2018-09-14T01:50:41.327Z,12.70
2018-09-14T01:53:12.205Z,12.70
2018-09-14T01:55:42.992Z,12.70
2018-09-14T01:58:13.672Z,12.60
2018-09-14T02:00:44.372Z,12.60
2018-09-14T02:03:15.385Z,12.60
2018-09-14T02:05:46.292Z,12.60
2018-09-14T02:08:16.999Z,12.60
2018-09-14T02:10:47.715Z,12.60
2018-09-14T02:13:18.432Z,12.50
2018-09-14T02:15:49.320Z,12.50
2018-09-14T02:18:20.053Z,12.50
2018-09-14T02:20:50.723Z,12.60
2018-09-14T02:23:21.596Z,12.50
2018-09-14T02:25:52.300Z,12.50
2018-09-14T02:28:23.040Z,12.50
2018-09-14T02:30:53.749Z,12.40
2018-09-14T02:33:24.453Z,12.40
2018-09-14T02:35:55.121Z,12.40
2018-09-14T02:38:25.875Z,12.40
2018-09-14T02:40:56.554Z,12.40
2018-09-14T02:43:27.250Z,12.30
2018-09-14T02:45:57.947Z,12.30
2018-09-14T02:48:28.966Z,12.30
2018-09-14T02:50:59.655Z,12.20
2018-09-14T02:53:30.719Z,12.30
2018-09-14T02:56:01.637Z,12.20
2018-09-14T02:58:32.331Z,12.20
2018-09-14T03:01:03.046Z,12.20
2018-09-14T03:03:33.786Z,12.10
2018-09-14T03:06:04.467Z,12.10
2018-09-14T03:08:35.196Z,12.10
2018-09-14T03:11:06.457Z,12.10
2018-09-14T03:13:37.113Z,12.10
2018-09-14T03:16:07.820Z,12.10
2018-09-14T03:18:38.533Z,12.10
2018-09-14T03:21:09.269Z,12.10
2018-09-14T03:23:39.929Z,12.10
2018-09-14T03:26:10.620Z,12.10
2018-09-14T03:28:41.433Z,12.10
2018-09-14T03:31:12.144Z,12.10
2018-09-14T03:33:42.810Z,12.00
2018-09-14T03:36:13.513Z,12.00
2018-09-14T03:38:44.202Z,11.90
2018-09-14T03:41:14.909Z,11.90
2018-09-14T03:43:45.646Z,11.80
2018-09-14T03:46:16.328Z,11.80
2018-09-14T03:48:50.034Z,11.80
2018-09-14T03:51:20.762Z,11.70
2018-09-14T03:53:51.451Z,11.70
2018-09-14T03:56:22.161Z,11.70
2018-09-14T03:58:52.840Z,11.70
2018-09-14T04:01:23.644Z,11.70
2018-09-14T04:03:54.399Z,11.60
2018-09-14T04:06:25.083Z,11.60
2018-09-14T04:08:55.800Z,11.50
2018-09-14T04:11:26.484Z,11.50
2018-09-14T04:13:57.191Z,11.50
2018-09-14T04:16:27.885Z,11.50
2018-09-14T04:19:03.764Z,11.40
2018-09-14T04:21:35.697Z,11.40
2018-09-14T04:24:06.420Z,11.40
2018-09-14T04:26:37.131Z,11.40
2018-09-14T04:29:08.275Z,11.40
2018-09-14T04:31:43.512Z,11.40
2018-09-14T04:34:18.749Z,11.40
2018-09-14T04:36:50.072Z,11.40
2018-09-14T04:39:20.742Z,11.40
2018-09-14T04:41:51.653Z,11.50
2018-09-14T04:44:22.398Z,11.50
2018-09-14T04:46:53.303Z,11.50
2018-09-14T04:49:23.960Z,11.50
2018-09-14T04:51:54.709Z,11.50
2018-09-14T04:54:25.389Z,11.50
2018-09-14T04:56:56.301Z,11.60
2018-09-14T04:59:26.972Z,11.60
2018-09-14T05:01:59.900Z,11.60
2018-09-14T05:04:30.595Z,11.60
2018-09-14T05:07:01.309Z,11.60
2018-09-14T05:09:32.003Z,11.60
2018-09-14T05:12:02.687Z,11.70
2018-09-14T05:14:33.413Z,11.70
2018-09-14T05:17:04.107Z,11.70
2018-09-14T05:19:34.828Z,11.80
2018-09-14T05:22:05.540Z,11.80
2018-09-14T05:24:36.340Z,11.90
2018-09-14T05:27:07.190Z,11.90
2018-09-14T05:29:38.123Z,11.90
2018-09-14T05:32:08.805Z,11.90
2018-09-14T05:34:39.517Z,12.00
2018-09-14T05:37:10.223Z,12.00
2018-09-14T05:39:40.933Z,12.00
2018-09-14T05:42:11.613Z,12.00
2018-09-14T05:44:42.326Z,12.00
2018-09-14T05:47:13.036Z,12.10
2018-09-14T05:49:43.714Z,12.10
2018-09-14T05:52:14.411Z,12.10
2018-09-14T05:54:45.296Z,12.20
2018-09-14T05:57:16.024Z,12.20
2018-09-14T05:59:46.694Z,12.20
2018-09-14T06:02:17.560Z,12.30
2018-09-14T06:04:48.282Z,12.30
2018-09-14T06:07:18.993Z,12.30
2018-09-14T06:09:49.668Z,12.40
2018-09-14T06:12:20.532Z,12.40
2018-09-14T06:14:51.217Z,12.40
2018-09-14T06:17:21.941Z,12.50
2018-09-14T06:19:52.629Z,12.50
2018-09-14T06:22:23.429Z,12.50
2018-09-14T06:24:54.260Z,12.50
2018-09-14T06:27:24.991Z,12.60
2018-09-14T06:29:55.665Z,12.60
2018-09-14T06:32:26.360Z,12.60
2018-09-14T06:34:57.069Z,12.60
2018-09-14T06:37:27.792Z,12.70
2018-09-14T06:39:58.561Z,12.70
2018-09-14T06:42:29.244Z,12.70
2018-09-14T06:45:00.043Z,12.70
2018-09-14T06:47:30.896Z,12.80
2018-09-14T06:50:01.611Z,12.80
2018-09-14T06:52:33.392Z,12.80
2018-09-14T06:55:04.277Z,12.90
2018-09-14T06:57:34.944Z,12.90
2018-09-14T07:00:05.809Z,12.90
2018-09-14T07:02:36.600Z,13.00
2018-09-14T07:05:07.385Z,13.00
2018-09-14T07:07:38.056Z,13.00
2018-09-14T07:10:08.775Z,13.10
2018-09-14T07:12:39.480Z,13.10
2018-09-14T07:15:10.219Z,13.10
2018-09-14T07:17:40.933Z,13.20
2018-09-14T07:20:11.800Z,13.20
2018-09-14T07:22:42.539Z,13.20
2018-09-14T07:25:13.286Z,13.30
2018-09-14T07:27:44.146Z,13.30
2018-09-14T07:30:14.980Z,13.30
2018-09-14T07:32:45.922Z,13.40
2018-09-14T07:35:16.809Z,13.40
2018-09-14T07:37:47.525Z,13.40
2018-09-14T07:40:18.211Z,13.50
2018-09-14T07:42:48.899Z,13.50
2018-09-14T07:45:19.613Z,13.50
2018-09-14T07:47:50.340Z,13.50
2018-09-14T07:50:21.025Z,13.60
2018-09-14T07:52:51.712Z,13.60
2018-09-14T07:55:22.493Z,13.60
2018-09-14T07:57:53.328Z,13.70
2018-09-14T08:00:24.045Z,13.70
2018-09-14T08:02:54.754Z,13.80
2018-09-14T08:05:25.636Z,13.80
2018-09-14T08:07:56.320Z,13.90
2018-09-14T08:10:27.041Z,13.90
2018-09-14T08:13:01.318Z,14.00
2018-09-14T08:15:32.011Z,14.10
2018-09-14T08:18:02.729Z,14.10
2018-09-14T08:20:33.609Z,14.20
2018-09-14T08:23:04.652Z,14.20
2018-09-14T08:25:35.319Z,14.30
2018-09-14T08:28:06.090Z,14.30
2018-09-14T08:30:36.952Z,14.40
2018-09-14T08:33:07.652Z,14.50
2018-09-14T08:38:15.376Z,14.70
2018-09-14T08:40:46.069Z,14.80
2018-09-14T08:43:16.785Z,14.80
2018-09-14T08:45:47.468Z,14.90
2018-09-14T08:48:18.184Z,15.10
2018-09-14T08:50:49.092Z,15.20
2018-09-14T08:53:19.760Z,15.20
2018-09-14T08:55:50.468Z,15.30
2018-09-14T08:58:21.153Z,15.40
2018-09-14T09:00:51.900Z,15.50
2018-09-14T09:03:22.768Z,15.50
2018-09-14T09:05:53.477Z,15.60
2018-09-14T09:08:24.140Z,15.70
2018-09-14T09:10:54.895Z,15.70
2018-09-14T09:13:25.572Z,15.80
2018-09-14T09:15:56.268Z,15.90
2018-09-14T09:18:26.948Z,16.00
2018-09-14T09:20:57.656Z,16.10
2018-09-14T09:23:28.365Z,16.20
2018-09-14T09:25:59.274Z,16.30
2018-09-14T09:28:29.957Z,16.30
2018-09-14T09:31:01.010Z,16.40
2018-09-14T09:33:31.732Z,16.50
2018-09-14T09:36:02.461Z,16.50
2018-09-14T09:38:33.532Z,16.60
2018-09-14T09:41:04.226Z,16.60
2018-09-14T09:43:35.084Z,16.70
2018-09-14T09:46:05.912Z,16.80
2018-09-14T09:48:36.608Z,16.90
2018-09-14T09:51:07.298Z,16.90
2018-09-14T09:53:38.215Z,17.00
2018-09-14T09:56:08.909Z,17.20
2018-09-14T09:58:39.660Z,17.40
2018-09-14T10:01:15.816Z,17.50
2018-09-14T10:03:51.968Z,17.70
2018-09-14T10:06:23.892Z,17.80
2018-09-14T10:08:55.476Z,17.90
2018-09-14T10:11:26.849Z,18.00
2018-09-14T10:13:57.568Z,17.90
2018-09-14T10:16:28.468Z,17.90
2018-09-14T10:18:59.193Z,17.90
2018-09-14T10:21:29.964Z,17.80
2018-09-14T10:24:00.856Z,17.80
2018-09-14T10:26:31.831Z,17.80
2018-09-14T10:29:02.635Z,17.70
2018-09-14T10:31:33.455Z,17.70
2018-09-14T10:34:04.195Z,17.70
2018-09-14T10:36:35.087Z,17.70
2018-09-14T10:39:08.992Z,17.70
2018-09-14T10:41:39.721Z,17.70
2018-09-14T10:44:10.436Z,17.70
2018-09-14T10:46:41.148Z,17.70
2018-09-14T10:49:11.861Z,17.70
2018-09-14T10:51:42.586Z,17.70
2018-09-14T10:54:13.329Z,17.80
2018-09-14T10:56:44.040Z,17.80
2018-09-14T10:59:14.777Z,17.80
2018-09-14T11:01:45.464Z,17.90
2018-09-14T11:04:16.216Z,17.90
2018-09-14T11:06:47.197Z,18.00
2018-09-14T11:09:18.001Z,18.00
2018-09-14T11:11:48.714Z,18.00
2018-09-14T11:14:19.425Z,18.10
2018-09-14T11:16:50.133Z,18.20
2018-09-14T11:19:20.844Z,18.20
2018-09-14T11:21:51.737Z,18.20
2018-09-14T11:24:22.453Z,18.20
2018-09-14T11:26:53.146Z,18.30
2018-09-14T11:29:23.853Z,18.40
2018-09-14T11:31:54.569Z,18.50
2018-09-14T11:34:25.269Z,18.60
2018-09-14T11:36:56.189Z,18.70
2018-09-14T11:39:26.877Z,18.80
2018-09-14T11:41:57.575Z,18.90
2018-09-14T11:44:28.333Z,19.00
2018-09-14T11:46:59.237Z,19.00
2018-09-14T11:49:29.939Z,19.00
2018-09-14T11:52:00.860Z,19.00
2018-09-14T11:54:31.547Z,19.00
2018-09-14T11:57:02.255Z,19.00
2018-09-14T11:59:32.981Z,19.10
2018-09-14T12:02:03.705Z,19.10
2018-09-14T12:04:34.425Z,19.10
2018-09-14T12:07:05.117Z,19.20
2018-09-14T12:09:35.849Z,19.30
2018-09-14T12:12:06.533Z,19.40
2018-09-14T12:14:36.948Z,19.60
2018-09-14T12:17:07.634Z,19.60
2018-09-14T12:19:38.305Z,19.60
2018-09-14T12:22:09.140Z,19.60
2018-09-14T12:24:39.987Z,19.70
2018-09-14T12:27:10.388Z,19.80
2018-09-14T12:29:41.048Z,19.80
2018-09-14T12:32:11.945Z,19.70
2018-09-14T12:34:42.635Z,19.80
2018-09-14T12:37:13.337Z,19.90
2018-09-14T12:39:44.028Z,20.00
2018-09-14T12:42:14.748Z,20.10
2018-09-14T12:44:45.451Z,20.20
2018-09-14T12:47:15.861Z,20.30
2018-09-14T12:49:46.569Z,20.40
2018-09-14T12:52:16.948Z,20.40
2018-09-14T12:54:47.662Z,20.50
2018-09-14T12:57:18.331Z,20.50
2018-09-14T12:59:49.040Z,20.50
2018-09-14T13:02:19.712Z,20.50
2018-09-14T13:04:50.420Z,20.50
2018-09-14T13:07:21.337Z,20.50
2018-09-14T13:09:52.086Z,20.50
2018-09-14T13:12:22.776Z,20.40
2018-09-14T13:14:53.222Z,20.30
2018-09-14T13:17:24.047Z,20.30
2018-09-14T13:19:54.735Z,20.30
2018-09-14T13:22:25.139Z,20.30
2018-09-14T13:24:55.530Z,20.40
2018-09-14T13:27:26.424Z,20.50
2018-09-14T13:29:56.808Z,20.60
2018-09-14T13:32:27.230Z,20.70
2018-09-14T13:34:57.638Z,20.70
2018-09-14T13:37:28.056Z,20.70
2018-09-14T13:39:58.436Z,20.80
2018-09-14T13:42:29.201Z,20.80
2018-09-14T13:44:59.653Z,20.80
2018-09-14T13:47:30.053Z,20.80
2018-09-14T13:50:00.472Z,20.70
2018-09-14T13:52:30.849Z,20.80
2018-09-14T13:55:01.256Z,20.80
2018-09-14T13:57:31.629Z,20.80
2018-09-14T14:00:03.076Z,20.80
2018-09-14T14:02:33.900Z,20.80
2018-09-14T14:05:04.433Z,20.80
2018-09-14T14:07:34.823Z,20.90
2018-09-14T14:10:05.609Z,20.90
2018-09-14T14:12:35.980Z,20.90
2018-09-14T14:15:06.795Z,20.90
2018-09-14T14:17:37.486Z,20.90
2018-09-14T14:20:08.365Z,21.00
2018-09-14T14:22:38.785Z,21.00
2018-09-14T14:25:09.308Z,21.00
2018-09-14T14:27:39.712Z,21.00
2018-09-14T14:30:10.123Z,20.90
2018-09-14T14:32:40.529Z,20.90
2018-09-14T14:35:10.945Z,20.90
2018-09-14T14:37:41.536Z,20.90
2018-09-14T14:40:11.972Z,21.00
2018-09-14T14:42:42.368Z,21.00
2018-09-14T14:45:12.827Z,21.00
2018-09-14T14:47:43.236Z,21.00
2018-09-14T14:50:13.729Z,21.00
2018-09-14T14:52:44.153Z,21.00
2018-09-14T14:55:14.620Z,21.00
2018-09-14T14:57:45.144Z,20.90
2018-09-14T15:00:15.550Z,20.90
2018-09-14T15:02:45.977Z,20.80
2018-09-14T15:05:16.480Z,20.90
2018-09-14T15:07:46.911Z,20.90
2018-09-14T15:10:18.050Z,20.80
2018-09-14T15:12:48.493Z,20.80
2018-09-14T15:15:18.921Z,20.90
2018-09-14T15:17:49.334Z,20.90
2018-09-14T15:20:19.706Z,20.90
2018-09-14T15:22:50.115Z,20.90
2018-09-14T15:25:20.513Z,20.90
2018-09-14T15:27:51.103Z,20.80
2018-09-14T15:30:21.642Z,20.80
2018-09-14T15:32:52.109Z,20.80
2018-09-14T15:35:22.506Z,20.90
2018-09-14T15:37:52.916Z,20.80
2018-09-14T15:40:23.847Z,20.90
2018-09-14T15:42:54.221Z,20.80
2018-09-14T15:45:24.828Z,20.80
2018-09-14T15:47:55.229Z,20.70
2018-09-14T15:50:25.632Z,20.70
2018-09-14T15:52:56.028Z,20.60
2018-09-14T15:55:26.436Z,20.50
2018-09-14T15:57:57.136Z,20.50
2018-09-14T16:00:27.557Z,20.40
2018-09-14T16:02:57.939Z,20.40
2018-09-14T16:05:28.412Z,20.40
2018-09-14T16:07:58.812Z,20.40
2018-09-14T16:10:29.224Z,20.40
2018-09-14T16:12:59.904Z,20.40
2018-09-14T16:15:30.284Z,20.30
2018-09-14T16:18:00.698Z,20.30
2018-09-14T16:20:31.272Z,20.20
2018-09-14T16:23:01.690Z,20.20
2018-09-14T16:25:32.360Z,20.20
2018-09-14T16:28:03.733Z,20.10
2018-09-14T16:30:35.156Z,20.10
2018-09-14T16:33:05.925Z,20.00
2018-09-14T16:35:36.605Z,19.90
2018-09-14T16:38:07.040Z,19.90
2018-09-14T16:40:37.572Z,19.90
2018-09-14T16:43:07.973Z,19.80
2018-09-14T16:45:38.409Z,19.70
2018-09-14T16:48:09.067Z,19.60
2018-09-14T16:50:39.805Z,19.60
2018-09-14T16:53:10.207Z,19.50
2018-09-14T16:55:40.604Z,19.50
2018-09-14T16:58:11.293Z,19.40
2018-09-14T17:00:41.700Z,19.40
2018-09-14T17:03:12.101Z,19.40
2018-09-14T17:05:42.537Z,19.30
2018-09-14T17:08:13.211Z,19.30
2018-09-14T17:10:43.913Z,19.20
2018-09-14T17:13:14.589Z,19.20
2018-09-14T17:15:45.024Z,19.20
2018-09-14T17:18:15.424Z,19.10
2018-09-14T17:20:45.813Z,19.10
2018-09-14T17:23:16.794Z,19.00
2018-09-14T17:25:47.178Z,19.00
2018-09-14T17:28:17.589Z,18.90
2018-09-14T17:30:48.256Z,18.80
2018-09-14T17:33:18.660Z,18.80
2018-09-14T17:35:49.349Z,18.80
2018-09-14T17:38:19.857Z,18.70
2018-09-14T17:40:50.340Z,18.70
2018-09-14T17:43:20.762Z,18.60
2018-09-14T17:45:51.153Z,18.60
2018-09-14T17:48:21.569Z,18.60
2018-09-14T17:50:51.992Z,18.50
2018-09-14T17:53:22.391Z,18.40
2018-09-14T17:55:52.781Z,18.40
2018-09-14T17:58:23.244Z,18.30
2018-09-14T18:00:53.940Z,18.30
2018-09-14T18:03:24.698Z,18.20
2018-09-14T18:05:55.586Z,18.20
2018-09-14T18:08:26.222Z,18.10
2018-09-14T18:10:56.634Z,18.00
2018-09-14T18:13:27.037Z,18.00
2018-09-14T18:15:57.685Z,18.00
2018-09-14T18:18:28.757Z,17.90
2018-09-14T18:20:59.157Z,17.80
2018-09-14T18:23:29.536Z,17.80
2018-09-14T18:26:00.612Z,17.70
2018-09-14T18:28:30.990Z,17.70
2018-09-14T18:31:01.709Z,17.60
2018-09-14T18:33:32.400Z,17.50
2018-09-14T18:36:03.110Z,17.50
2018-09-14T18:38:33.956Z,17.40
2018-09-14T18:41:04.675Z,17.40
2018-09-14T18:43:35.396Z,17.30
2018-09-14T18:46:06.067Z,17.20
2018-09-14T18:48:36.760Z,17.10
2018-09-14T18:51:07.461Z,17.10
2018-09-14T18:53:38.601Z,17.00
2018-09-14T18:56:09.260Z,16.90
2018-09-14T18:58:39.957Z,16.90
2018-09-14T19:01:10.612Z,16.80
2018-09-14T19:03:41.329Z,16.80
2018-09-14T19:06:12.413Z,16.70
2018-09-14T19:08:43.125Z,16.60
2018-09-14T19:11:13.812Z,16.60
2018-09-14T19:13:44.530Z,16.50
2018-09-14T19:16:15.216Z,16.50
2018-09-14T19:18:46.300Z,16.40
2018-09-14T19:21:16.994Z,16.40
2018-09-14T19:23:47.648Z,16.30
2018-09-14T19:26:18.354Z,16.30
2018-09-14T19:28:49.217Z,16.30
2018-09-14T19:31:19.940Z,16.20
2018-09-14T19:33:50.666Z,16.10
2018-09-14T19:36:21.385Z,16.10
2018-09-14T19:38:52.065Z,16.00
2018-09-14T19:41:23.372Z,16.00
2018-09-14T19:43:54.049Z,15.90
2018-09-14T19:46:24.736Z,15.90
2018-09-14T19:48:55.392Z,15.80
2018-09-14T19:51:26.138Z,15.80
2018-09-14T19:53:56.989Z,15.70
2018-09-14T19:56:27.712Z,15.70
2018-09-14T19:58:58.728Z,15.70
2018-09-14T20:01:29.445Z,15.70
2018-09-14T20:04:00.124Z,15.60
2018-09-14T20:06:30.807Z,15.70
2018-09-14T20:09:01.460Z,15.70
2018-09-14T20:11:32.137Z,15.70
2018-09-14T20:14:03.036Z,15.60
2018-09-14T20:16:33.700Z,15.60
2018-09-14T20:19:04.407Z,15.60
2018-09-14T20:21:35.078Z,15.50
2018-09-14T20:24:05.790Z,15.50
2018-09-14T20:26:36.652Z,15.50
2018-09-14T20:29:07.360Z,15.40
2018-09-14T20:31:38.033Z,15.40
2018-09-14T20:34:08.732Z,15.30
2018-09-14T20:36:39.451Z,15.30
2018-09-14T20:39:11.708Z,15.20
2018-09-14T20:41:42.423Z,15.20
2018-09-14T20:44:13.122Z,15.10
2018-09-14T20:46:43.824Z,15.00
2018-09-14T20:49:14.484Z,15.00
2018-09-14T20:51:45.280Z,14.90
2018-09-14T20:54:16.140Z,14.90
2018-09-14T20:56:46.836Z,14.80
2018-09-14T20:59:17.716Z,14.80
2018-09-14T21:01:48.681Z,14.80
2018-09-14T21:04:19.431Z,14.80
2018-09-14T21:06:50.265Z,14.80
2018-09-14T21:09:20.957Z,14.80
2018-09-14T21:11:51.647Z,14.80
2018-09-14T21:14:22.341Z,14.80
2018-09-14T21:16:53.018Z,14.80
2018-09-14T21:19:23.718Z,14.90
2018-09-14T21:21:54.401Z,14.90
2018-09-14T21:24:25.091Z,14.90
2018-09-14T21:26:55.772Z,14.90
2018-09-14T21:29:26.453Z,14.90
2018-09-14T21:31:57.121Z,15.00
2018-09-14T21:34:27.811Z,15.00
2018-09-14T21:36:58.480Z,15.10
2018-09-14T21:39:29.188Z,15.10
2018-09-14T21:41:59.861Z,15.10
2018-09-14T21:44:30.558Z,15.10
2018-09-14T21:47:01.244Z,15.20
2018-09-14T21:49:31.971Z,15.20
2018-09-14T21:52:02.650Z,15.20
2018-09-14T21:54:33.333Z,15.30
2018-09-14T21:57:04.048Z,15.30
2018-09-14T21:59:34.715Z,15.20
2018-09-14T22:02:05.437Z,15.30
2018-09-14T22:04:36.103Z,15.30
2018-09-14T22:07:07.774Z,15.40
2018-09-14T22:09:38.432Z,15.40
2018-09-14T22:12:09.155Z,15.40
2018-09-14T22:14:39.816Z,15.40
2018-09-14T22:17:10.528Z,15.40
2018-09-14T22:19:41.220Z,15.40
2018-09-14T22:22:11.929Z,15.40
2018-09-14T22:24:42.772Z,15.40
2018-09-14T22:27:13.459Z,15.40
2018-09-14T22:29:44.164Z,15.40
2018-09-14T22:32:14.864Z,15.40
2018-09-14T22:34:45.773Z,15.40
2018-09-14T22:37:16.472Z,15.40
2018-09-14T22:39:47.132Z,15.40
2018-09-14T22:42:17.837Z,15.40
2018-09-14T22:44:48.594Z,15.40
2018-09-14T22:47:19.297Z,15.40
2018-09-14T22:49:49.977Z,15.40
2018-09-14T22:52:20.714Z,15.40
2018-09-14T22:54:51.449Z,15.40
2018-09-14T22:57:22.136Z,15.40
2018-09-14T22:59:52.826Z,15.40
2018-09-14T23:02:23.536Z,15.40
2018-09-14T23:04:54.209Z,15.40
2018-09-14T23:07:24.916Z,15.40
2018-09-14T23:09:55.572Z,15.40
2018-09-14T23:12:26.265Z,15.40
2018-09-14T23:14:56.948Z,15.40
2018-09-14T23:17:27.596Z,15.40
2018-09-14T23:19:58.284Z,15.40
2018-09-14T23:22:28.947Z,15.40
2018-09-14T23:24:59.643Z,15.30
2018-09-14T23:48:55.913Z,15.40
2018-09-14T23:51:26.055Z,15.40
2018-09-14T23:54:01.400Z,15.40
2018-09-14T23:56:36.836Z,15.40
2018-09-14T23:59:07.496Z,15.40
